^^
Meteo Knjazevac Station Historical Data
Daily Summary for September 3, 2021 Units:  Metric    English   Both
Daily Weekly Monthly Yearly Custom
  High: Low: Average:
Temperature: 1.8 °C -0.3 °C 0.8 °C
Dew Point: 1.7 °C -0.4 °C 0.7 °C
Humidity: 99% 99% 99%
Wind Speed: 3.2km/h 0km/h 1.1km/h
Wind Gust: 9.7km/h - -
Wind- - West
Pressure: 1021.2 hPa 1019.9 hPa -
Precipitation: 3.05 mm    
Historical Graphs
 
 
Tabular Data for September 3, 2021
Time Temperature Dew Point Pressure Wind Wind Speed Wind Gust Humidity Rainfall Rate (Hourly) solar Conditions
00:00 -0.3 °C -0.4 °C 1021.2 hPa West 1.6 km/h 3.2 km/h 99% 0 mm 0 W/m2
00:10 -0.2 °C -0.3 °C 1021.2 hPa West 1.6 km/h 4.8 km/h 99% 0 mm 0 W/m2
00:20 -0.2 °C -0.3 °C 1021.2 hPa WSW 3.2 km/h 8 km/h 99% 0 mm 0 W/m2
00:30 -0.1 °C -0.2 °C 1020.9 hPa WNW 3.2 km/h 9.7 km/h 99% 0 mm 0 W/m2
00:40 0 °C -0.1 °C 1020.9 hPa West 3.2 km/h 8 km/h 99% 0 mm 0 W/m2
00:50 0.1 °C -0.1 °C 1021.2 hPa WSW 3.2 km/h 8 km/h 99% 0 mm 0 W/m2
01:00 0.1 °C -0.1 °C 1020.9 hPa West 3.2 km/h 6.4 km/h 99% 0 mm 0 W/m2
01:10 0.2 °C 0 °C 1020.9 hPa West 1.6 km/h 4.8 km/h 99% 0 mm 0 W/m2
01:20 0.2 °C 0.1 °C 1020.9 hPa West 1.6 km/h 3.2 km/h 99% 0 mm 0 W/m2
01:30 0.3 °C 0.2 °C 1020.9 hPa Calm   4.8 km/h 99% 0 mm 0 W/m2
01:40 0.4 °C 0.3 °C 1020.9 hPa NW 1.6 km/h 4.8 km/h 99% 0 mm 0 W/m2
01:50 0.5 °C 0.4 °C 1020.9 hPa Calm   4.8 km/h 99% 0 mm 0 W/m2
02:00 0.5 °C 0.4 °C 1020.9 hPa Calm   3.2 km/h 99% 0 mm 0 W/m2
02:10 0.6 °C 0.4 °C 1020.9 hPa Calm   3.2 km/h 99% 0 mm 0 W/m2
02:20 0.6 °C 0.4 °C 1020.9 hPa Calm   4.8 km/h 99% 0 mm 0 W/m2
02:30 0.7 °C 0.6 °C 1020.9 hPa Calm   6.4 km/h 99% 0 mm 0 W/m2
02:40 0.8 °C 0.7 °C 1020.9 hPa Calm   3.2 km/h 99% 0 mm 0 W/m2
02:50 0.8 °C 0.7 °C 1020.9 hPa Calm   3.2 km/h 99% 0 mm 0 W/m2
03:00 0.8 °C 0.7 °C 1020.9 hPa West 1.6 km/h 4.8 km/h 99% 0 mm 0 W/m2
03:10 0.8 °C 0.7 °C 1020.9 hPa West 1.6 km/h 3.2 km/h 99% 0 mm 0 W/m2
03:20 0.8 °C 0.7 °C 1020.9 hPa WSW 1.6 km/h 3.2 km/h 99% 0 mm 0 W/m2
03:30 0.8 °C 0.7 °C 1020.9 hPa WSW 3.2 km/h 3.2 km/h 99% 0 mm 0 W/m2
03:40 0.8 °C 0.7 °C 1020.9 hPa West 1.6 km/h 4.8 km/h 99% 0 mm 0 W/m2
03:50 0.9 °C 0.8 °C 1020.5 hPa West 1.6 km/h 6.4 km/h 99% 0 mm 0 W/m2
04:00 1 °C 0.8 °C 1020.5 hPa Calm   3.2 km/h 99% 0 mm 0 W/m2
04:10 1 °C 0.8 °C 1020.5 hPa Calm   1.6 km/h 99% 0 mm 0 W/m2
04:20 1.1 °C 0.9 °C 1020.5 hPa Calm   3.2 km/h 99% 0 mm 0 W/m2
04:30 1.1 °C 0.9 °C 1020.5 hPa Calm   3.2 km/h 99% 0 mm 0 W/m2
04:40 1.2 °C 1.1 °C 1020.5 hPa Calm   3.2 km/h 99% 0 mm 0 W/m2
04:50 1.2 °C 1.1 °C 1020.5 hPa NW 1.6 km/h 3.2 km/h 99% 0 mm 0 W/m2
05:00 1.3 °C 1.2 °C 1020.2 hPa Calm   3.2 km/h 99% 0 mm 0 W/m2
05:10 1.4 °C 1.3 °C 1020.2 hPa Calm   3.2 km/h 99% 0 mm 0 W/m2
05:20 1.4 °C 1.3 °C 1020.2 hPa Calm   3.2 km/h 99% 0 mm 0 W/m2
05:30 1.5 °C 1.3 °C 1020.2 hPa Calm   3.2 km/h 99% 3.05 mm 0 W/m2
05:40 1.6 °C 1.4 °C 1019.9 hPa Calm   3.2 km/h 99% 0 mm 0 W/m2
05:50 1.5 °C 1.3 °C 1020.2 hPa WSW 3.2 km/h 4.8 km/h 99% 0 mm 0 W/m2
06:00 1.4 °C 1.3 °C 1020.2 hPa West 3.2 km/h 8 km/h 99% 0 mm 0 W/m2
06:10 1.5 °C 1.3 °C 1020.2 hPa West 1.6 km/h 6.4 km/h 99% 0 mm 0 W/m2
06:20 1.6 °C 1.4 °C 1020.2 hPa West 1.6 km/h 4.8 km/h 99% 0 mm 0 W/m2
06:30 1.6 °C 1.4 °C 1020.2 hPa Calm   3.2 km/h 99% 0 mm 0 W/m2
06:40 1.7 °C 1.6 °C 1020.2 hPa North 1.6 km/h 4.8 km/h 99% 0 mm 0 W/m2
06:50 1.8 °C 1.7 °C 1020.5 hPa Calm   9.7 km/h 99% 0 mm 0 W/m2
Knjazevac, Serbia
Compliments of Weather Underground - 2 mb